Time;durP1;ratioP1;P1;durP2;ratioP2;P2;SDS_P1;SDS_P2;PMS_P1;PMS_P2;Temp;Humidity;BMP_temperature;BMP_pressure;BME280_temperature;BME280_humidity;BME280_pressure;Samples;Min_cycle;Max_cycle;Signal;HPM_P1;HPM_P2
2022/08/02 00:00:49;;;;;;;8.65;1.88;;;;;;;;;;10297040;28;20037;-67
2022/08/02 00:05:51;;;;;;;10.43;1.63;;;;;;;;;;10291761;28;20045;-67
2022/08/02 00:10:49;;;;;;;6.60;1.60;;;;;;;;;;10299754;28;20056;-67
2022/08/02 00:15:45;;;;;;;7.05;1.60;;;;;;;;;;10303931;28;20127;-69
2022/08/02 00:20:41;;;;;;;4.78;1.08;;;;;;;;;;10305204;28;20044;-69
2022/08/02 00:25:37;;;;;;;7.45;1.60;;;;;;;;;;10300316;28;20072;-69
2022/08/02 00:30:51;;;;;;;6.85;1.50;;;;;;;;;;10297988;28;20546;-67
2022/08/02 00:35:47;;;;;;;8.43;1.75;;;;;;;;;;10300412;28;20079;-67
2022/08/02 00:40:47;;;;;;;5.95;1.75;;;;;;;;;;10297328;28;20067;-70
2022/08/02 00:45:44;;;;;;;8.55;1.73;;;;;;;;;;10310347;28;20052;-69
2022/08/02 00:50:59;;;;;;;9.98;2.03;;;;;;;;;;10296141;28;20057;-67
2022/08/02 00:55:55;;;;;;;9.70;1.55;;;;;;;;;;10295255;28;20581;-66
2022/08/02 01:00:53;;;;;;;3.92;1.08;;;;;;;;;;10299456;28;20421;-67
2022/08/02 01:05:49;;;;;;;8.05;2.08;;;;;;;;;;10289188;28;20486;-67
2022/08/02 01:11:05;;;;;;;11.13;2.50;;;;;;;;;;10294880;28;20052;-68
2022/08/02 01:16:10;;;;;;;6.50;1.92;;;;;;;;;;10297476;28;20131;-68
2022/08/02 01:21:18;;;;;;;6.47;1.38;;;;;;;;;;10305376;28;20044;-68
2022/08/02 01:26:27;;;;;;;6.57;1.58;;;;;;;;;;10294375;28;20105;-68
2022/08/02 01:31:46;;;;;;;10.60;2.50;;;;;;;;;;10296259;28;20537;-66
2022/08/02 01:36:45;;;;;;;6.47;1.20;;;;;;;;;;10298847;28;20068;-67
2022/08/02 01:41:42;;;;;;;8.45;1.60;;;;;;;;;;10299471;28;20106;-68
2022/08/02 01:46:40;;;;;;;7.82;2.00;;;;;;;;;;10292504;28;20040;-66
2022/08/02 01:56:54;;;;;;;4.63;1.63;;;;;;;;;;10289605;28;20646;-67
2022/08/02 02:01:51;;;;;;;9.93;2.20;;;;;;;;;;10299282;28;20493;-66
2022/08/02 02:06:48;;;;;;;8.07;1.60;;;;;;;;;;10292243;28;20048;-69
2022/08/02 02:11:45;;;;;;;9.45;2.00;;;;;;;;;;10292916;28;20132;-69
2022/08/02 02:17:02;;;;;;;11.32;2.33;;;;;;;;;;10302364;28;20044;-68
2022/08/02 02:21:58;;;;;;;8.55;2.22;;;;;;;;;;10312980;28;20075;-68
2022/08/02 02:26:58;;;;;;;10.18;2.60;;;;;;;;;;10310116;28;20124;-68
2022/08/02 02:31:55;;;;;;;8.65;1.92;;;;;;;;;;10311101;28;20041;-69
2022/08/02 02:36:52;;;;;;;9.80;2.15;;;;;;;;;;10305225;28;20064;-68
2022/08/02 02:41:50;;;;;;;6.85;1.63;;;;;;;;;;10303570;28;20053;-68
2022/08/02 02:46:48;;;;;;;6.63;1.90;;;;;;;;;;10294809;28;20133;-68
2022/08/02 02:51:44;;;;;;;6.75;1.50;;;;;;;;;;10300416;28;20084;-67
2022/08/02 02:56:41;;;;;;;6.03;1.90;;;;;;;;;;10298680;28;20072;-67
2022/08/02 03:01:38;;;;;;;10.07;2.60;;;;;;;;;;10302364;28;20525;-68
2022/08/02 03:06:53;;;;;;;6.95;2.03;;;;;;;;;;10292164;28;20047;-67
2022/08/02 03:11:49;;;;;;;6.40;1.67;;;;;;;;;;10311188;28;20068;-67
2022/08/02 03:16:47;;;;;;;11.70;3.05;;;;;;;;;;10294295;28;20064;-68
2022/08/02 03:21:44;;;;;;;6.93;2.08;;;;;;;;;;10292684;28;20076;-68
2022/08/02 03:26:41;;;;;;;6.70;1.85;;;;;;;;;;10297345;28;20092;-68
2022/08/02 03:31:42;;;;;;;7.72;2.03;;;;;;;;;;10309800;28;20184;-72
2022/08/02 03:36:40;;;;;;;8.07;2.17;;;;;;;;;;10297090;28;20044;-68
2022/08/02 03:41:37;;;;;;;4.30;1.70;;;;;;;;;;10300195;28;20074;-67
2022/08/02 03:46:34;;;;;;;5.47;1.67;;;;;;;;;;10304442;28;20056;-68
2022/08/02 03:51:31;;;;;;;5.15;2.47;;;;;;;;;;10295384;28;20048;-68
2022/08/02 03:56:27;;;;;;;5.88;2.30;;;;;;;;;;10292732;28;20136;-68
2022/08/02 04:01:23;;;;;;;8.35;3.03;;;;;;;;;;10297060;28;20152;-68
2022/08/02 04:06:20;;;;;;;8.23;2.15;;;;;;;;;;10297880;28;20163;-66
2022/08/02 04:11:31;;;;;;;17.58;3.40;;;;;;;;;;10285730;28;20060;-67
2022/08/02 04:16:38;;;;;;;14.88;3.22;;;;;;;;;;10272583;28;20135;-67
2022/08/02 04:21:36;;;;;;;10.45;2.97;;;;;;;;;;10280537;28;20079;-67
2022/08/02 04:26:48;;;;;;;7.35;2.40;;;;;;;;;;10274892;28;20541;-67
2022/08/02 04:31:45;;;;;;;8.98;2.45;;;;;;;;;;10272972;28;20060;-67
2022/08/02 04:36:42;;;;;;;6.18;2.30;;;;;;;;;;10277234;28;20133;-67
2022/08/02 04:41:43;;;;;;;6.95;2.55;;;;;;;;;;10277261;28;20075;-67
2022/08/02 04:46:40;;;;;;;11.57;3.50;;;;;;;;;;10275086;28;20052;-67
2022/08/02 04:51:38;;;;;;;8.77;3.05;;;;;;;;;;10270116;28;20206;-66
2022/08/02 04:56:34;;;;;;;9.02;2.47;;;;;;;;;;10276996;28;20048;-67
2022/08/02 05:01:31;;;;;;;5.82;2.25;;;;;;;;;;10278082;28;20043;-68
2022/08/02 05:06:27;;;;;;;11.45;3.53;;;;;;;;;;10279803;28;20049;-67
2022/08/02 05:11:24;;;;;;;10.43;3.13;;;;;;;;;;10277166;28;20041;-67
2022/08/02 05:16:32;;;;;;;6.57;2.97;;;;;;;;;;10275023;28;20248;-67
2022/08/02 05:21:28;;;;;;;14.90;4.07;;;;;;;;;;10276729;28;20110;-67
2022/08/02 05:26:25;;;;;;;9.82;3.28;;;;;;;;;;10284903;28;20040;-67
2022/08/02 05:31:21;;;;;;;8.85;3.35;;;;;;;;;;10296261;28;20108;-68
2022/08/02 05:36:17;;;;;;;9.77;3.25;;;;;;;;;;10309952;28;20567;-68
2022/08/02 05:41:18;;;;;;;11.75;3.60;;;;;;;;;;10309091;28;20079;-68
2022/08/02 05:46:14;;;;;;;12.93;3.40;;;;;;;;;;10301361;28;20045;-68
2022/08/02 05:51:16;;;;;;;18.30;3.28;;;;;;;;;;10308391;28;20045;-68
2022/08/02 05:56:12;;;;;;;9.70;3.10;;;;;;;;;;10303460;28;20071;-68
2022/08/02 06:01:11;;;;;;;15.43;4.70;;;;;;;;;;10309437;28;20045;-68
2022/08/02 06:06:11;;;;;;;10.50;3.17;;;;;;;;;;10302654;28;20059;-68
2022/08/02 06:11:11;;;;;;;8.75;2.72;;;;;;;;;;10310731;28;20131;-68
2022/08/02 06:16:07;;;;;;;11.82;2.83;;;;;;;;;;10315956;28;20131;-68
2022/08/02 06:21:09;;;;;;;8.93;2.58;;;;;;;;;;10318002;28;20041;-67
2022/08/02 06:26:26;;;;;;;10.65;2.80;;;;;;;;;;10301000;28;20544;-67
2022/08/02 06:31:23;;;;;;;11.38;2.20;;;;;;;;;;10312734;28;20146;-68
2022/08/02 06:36:26;;;;;;;6.18;1.58;;;;;;;;;;10320023;28;20147;-68
2022/08/02 06:41:23;;;;;;;11.90;2.05;;;;;;;;;;10315241;28;20375;-67
2022/08/02 06:46:20;;;;;;;9.07;2.38;;;;;;;;;;10310665;28;20063;-67
2022/08/02 06:51:36;;;;;;;9.93;2.50;;;;;;;;;;10324196;28;20040;-68
2022/08/02 06:56:33;;;;;;;14.00;2.75;;;;;;;;;;10300059;28;20074;-68
2022/08/02 07:01:29;;;;;;;8.30;1.65;;;;;;;;;;10308022;28;20045;-68
2022/08/02 07:06:34;;;;;;;7.47;2.38;;;;;;;;;;10314231;28;20069;-68
2022/08/02 07:11:31;;;;;;;9.82;2.63;;;;;;;;;;10316431;28;20087;-68
2022/08/02 07:16:27;;;;;;;12.95;1.98;;;;;;;;;;10323537;28;20094;-68
2022/08/02 07:21:23;;;;;;;8.38;1.67;;;;;;;;;;10317852;28;20040;-68
2022/08/02 07:26:40;;;;;;;8.90;2.10;;;;;;;;;;10306418;28;20574;-68
2022/08/02 07:31:56;;;;;;;7.53;2.28;;;;;;;;;;10325817;28;20058;-68
2022/08/02 07:36:52;;;;;;;7.32;2.20;;;;;;;;;;10304107;28;20051;-68
2022/08/02 07:41:50;;;;;;;11.73;2.40;;;;;;;;;;10301042;28;20504;-68
2022/08/02 07:46:47;;;;;;;10.02;2.15;;;;;;;;;;10321932;28;20536;-68
2022/08/02 07:51:44;;;;;;;8.30;2.47;;;;;;;;;;10308019;28;20481;-67
2022/08/02 07:56:41;;;;;;;9.73;1.80;;;;;;;;;;10320049;28;20578;-68
2022/08/02 08:01:38;;;;;;;8.30;1.67;;;;;;;;;;10296308;28;20056;-68
2022/08/02 08:06:41;;;;;;;9.13;2.47;;;;;;;;;;10314780;28;20162;-68
2022/08/02 08:11:37;;;;;;;12.13;2.15;;;;;;;;;;10306457;28;20127;-68
2022/08/02 08:16:34;;;;;;;8.75;1.67;;;;;;;;;;10303310;28;20068;-67
2022/08/02 08:21:30;;;;;;;11.90;1.90;;;;;;;;;;10307428;28;20044;-67
2022/08/02 08:26:26;;;;;;;15.48;2.45;;;;;;;;;;10313771;28;20066;-67
2022/08/02 08:31:23;;;;;;;7.03;1.48;;;;;;;;;;10318058;28;20496;-68
2022/08/02 08:36:20;;;;;;;10.20;2.17;;;;;;;;;;10319463;28;20698;-67
2022/08/02 08:41:17;;;;;;;9.02;1.80;;;;;;;;;;10307120;28;20408;-68
2022/08/02 08:46:26;;;;;;;5.63;1.60;;;;;;;;;;10310814;28;20099;-68
2022/08/02 08:51:23;;;;;;;9.85;1.85;;;;;;;;;;10321096;28;20530;-68
2022/08/02 08:56:20;;;;;;;6.13;1.73;;;;;;;;;;10303454;28;20480;-68
2022/08/02 09:01:16;;;;;;;9.45;1.67;;;;;;;;;;10309893;28;20041;-68
2022/08/02 09:06:13;;;;;;;11.13;5.40;;;;;;;;;;10308590;28;20059;-68
2022/08/02 09:11:13;;;;;;;7.32;1.58;;;;;;;;;;10297648;28;20083;-68
2022/08/02 09:16:10;;;;;;;6.88;1.80;;;;;;;;;;10311682;28;20127;-69
2022/08/02 09:21:09;;;;;;;7.20;2.15;;;;;;;;;;10304734;28;20055;-68
2022/08/02 09:26:24;;;;;;;5.78;1.83;;;;;;;;;;10282292;28;20061;-68
2022/08/02 09:31:22;;;;;;;7.53;2.42;;;;;;;;;;10292237;28;20044;-67
2022/08/02 09:36:20;;;;;;;9.38;1.90;;;;;;;;;;10286268;28;20095;-68
2022/08/02 09:41:20;;;;;;;7.10;1.80;;;;;;;;;;10287437;28;20470;-68
2022/08/02 09:46:20;;;;;;;8.98;1.67;;;;;;;;;;10290388;28;20076;-67
2022/08/02 09:51:30;;;;;;;9.75;2.35;;;;;;;;;;10279869;28;20103;-68
2022/08/02 09:56:27;;;;;;;8.07;2.03;;;;;;;;;;10289128;28;20044;-68
2022/08/02 10:01:31;;;;;;;8.13;2.15;;;;;;;;;;10303861;28;20036;-68
2022/08/02 10:06:33;;;;;;;7.68;2.58;;;;;;;;;;10308126;28;20056;-68
2022/08/02 10:11:31;;;;;;;7.13;2.35;;;;;;;;;;10300131;28;20064;-68
2022/08/02 10:16:27;;;;;;;12.55;3.97;;;;;;;;;;10292235;28;20075;-68
2022/08/02 10:21:38;;;;;;;9.88;3.25;;;;;;;;;;10289757;28;20060;-68
2022/08/02 10:26:41;;;;;;;6.82;3.35;;;;;;;;;;10285880;28;20127;-68
2022/08/02 10:31:58;;;;;;;8.23;3.30;;;;;;;;;;10287062;28;20057;-68
2022/08/02 10:36:56;;;;;;;7.47;2.90;;;;;;;;;;10300480;28;20048;-68
2022/08/02 10:41:52;;;;;;;7.72;3.78;;;;;;;;;;10293307;28;20570;-68
2022/08/02 10:46:49;;;;;;;4.72;2.90;;;;;;;;;;10305469;28;20048;-68
2022/08/02 10:51:51;;;;;;;5.47;3.63;;;;;;;;;;10306238;28;20049;-68
2022/08/02 10:56:48;;;;;;;5.97;3.47;;;;;;;;;;10306327;28;20733;-68
2022/08/02 11:01:44;;;;;;;8.55;3.95;;;;;;;;;;10292883;28;20682;-68
2022/08/02 11:07:00;;;;;;;5.68;4.20;;;;;;;;;;10298291;28;20694;-68
2022/08/02 11:11:58;;;;;;;9.60;4.75;;;;;;;;;;10310788;28;20106;-68
2022/08/02 11:16:54;;;;;;;11.80;6.88;;;;;;;;;;10312193;28;20937;-66
2022/08/02 11:22:10;;;;;;;8.32;4.70;;;;;;;;;;10308994;28;20123;-68
2022/08/02 11:27:08;;;;;;;7.97;5.38;;;;;;;;;;10302581;28;20504;-68
2022/08/02 11:32:05;;;;;;;5.50;4.50;;;;;;;;;;10311086;28;20044;-69
2022/08/02 11:37:02;;;;;;;8.48;4.95;;;;;;;;;;10289756;28;20136;-68
2022/08/02 11:41:58;;;;;;;5.53;4.93;;;;;;;;;;10317036;28;20776;-68
2022/08/02 11:46:56;;;;;;;6.82;4.93;;;;;;;;;;10308345;28;20041;-68
2022/08/02 11:52:04;;;;;;;6.75;5.20;;;;;;;;;;10302643;28;20045;-68
2022/08/02 11:57:10;;;;;;;6.38;5.30;;;;;;;;;;10307422;28;20053;-67
2022/08/02 12:02:12;;;;;;;13.77;6.30;;;;;;;;;;10312161;28;20692;-68
2022/08/02 12:07:09;;;;;;;10.25;5.20;;;;;;;;;;10302000;28;20136;-68
2022/08/02 12:12:05;;;;;;;12.77;5.40;;;;;;;;;;10318281;28;20080;-68
2022/08/02 12:22:24;;;;;;;6.13;4.63;;;;;;;;;;10324324;28;20167;-67
2022/08/02 12:27:42;;;;;;;7.03;5.00;;;;;;;;;;10302902;28;20591;-68
2022/08/02 12:32:39;;;;;;;4.90;4.00;;;;;;;;;;10320154;28;20565;-68
2022/08/02 12:37:36;;;;;;;6.88;4.55;;;;;;;;;;10319349;28;20044;-68
2022/08/02 12:42:44;;;;;;;8.10;5.20;;;;;;;;;;10306057;28;20048;-68
2022/08/02 12:47:48;;;;;;;10.38;4.88;;;;;;;;;;10297126;28;20143;-68
2022/08/02 12:52:44;;;;;;;6.55;4.88;;;;;;;;;;10305860;28;20072;-68
2022/08/02 12:57:54;;;;;;;6.80;4.80;;;;;;;;;;10301944;28;20399;-68
2022/08/02 13:02:50;;;;;;;5.90;4.70;;;;;;;;;;10310187;28;20052;-66
2022/08/02 13:07:47;;;;;;;6.85;4.32;;;;;;;;;;10313326;28;20561;-68
2022/08/02 13:12:43;;;;;;;10.02;5.05;;;;;;;;;;10306858;28;20063;-68
2022/08/02 13:17:39;;;;;;;6.53;4.80;;;;;;;;;;10301434;28;20079;-66
2022/08/02 13:22:36;;;;;;;8.05;5.18;;;;;;;;;;10311506;28;20508;-67
2022/08/02 13:27:46;;;;;;;8.20;4.78;;;;;;;;;;10322927;28;20102;-67
2022/08/02 13:32:43;;;;;;;6.32;4.50;;;;;;;;;;10314058;28;20051;-71
2022/08/02 13:37:40;;;;;;;5.53;4.72;;;;;;;;;;10310104;28;20040;-67
2022/08/02 13:42:37;;;;;;;7.78;4.60;;;;;;;;;;10307172;28;20044;-67
2022/08/02 13:47:33;;;;;;;5.88;4.43;;;;;;;;;;10291790;28;20665;-67
2022/08/02 13:52:49;;;;;;;6.97;4.40;;;;;;;;;;10285189;28;20099;-67
2022/08/02 13:57:47;;;;;;;5.10;4.60;;;;;;;;;;10298303;28;20048;-67
2022/08/02 14:02:48;;;;;;;;;;;;;;;;;;10302630;28;20041;-67
2022/08/02 14:07:45;;;;;;;4.80;4.32;;;;;;;;;;10301443;28;20291;-67
2022/08/02 14:12:42;;;;;;;6.55;4.80;;;;;;;;;;10298449;28;20045;-67
2022/08/02 14:17:38;;;;;;;5.35;4.30;;;;;;;;;;10307585;28;20044;-68
2022/08/02 14:22:34;;;;;;;6.65;4.53;;;;;;;;;;10315635;28;20082;-67
2022/08/02 14:27:31;;;;;;;5.25;4.75;;;;;;;;;;10321030;28;20044;-67
2022/08/02 14:32:35;;;;;;;6.00;4.55;;;;;;;;;;10301550;28;20036;-67
2022/08/02 14:37:31;;;;;;;7.18;4.97;;;;;;;;;;10292787;28;20044;-67
2022/08/02 14:42:28;;;;;;;11.25;4.80;;;;;;;;;;10294276;28;20461;-66
2022/08/02 14:47:28;;;;;;;5.93;4.68;;;;;;;;;;10249666;22;20049;-66
2022/08/02 14:52:24;;;;;;;6.43;4.60;;;;;;;;;;10223397;28;20423;-66
2022/08/02 14:57:21;;;;;;;5.60;4.60;;;;;;;;;;10201258;28;20144;-66
2022/08/02 15:02:19;;;;;;;6.15;4.43;;;;;;;;;;10163126;28;20417;-69
2022/08/02 15:07:15;;;;;;;5.60;4.30;;;;;;;;;;10156086;28;20096;-69
2022/08/02 15:12:13;;;;;;;5.32;4.82;;;;;;;;;;10190405;28;20145;-70
2022/08/02 15:17:10;;;;;;;5.80;4.60;;;;;;;;;;10185265;28;20038;-70
2022/08/02 15:22:07;;;;;;;5.70;4.28;;;;;;;;;;10168133;28;20082;-70
2022/08/02 15:27:11;;;;;;;7.38;4.38;;;;;;;;;;10179651;28;20054;-69
2022/08/02 15:32:08;;;;;;;6.45;4.65;;;;;;;;;;10180839;28;20076;-69
2022/08/02 15:37:05;;;;;;;5.00;4.55;;;;;;;;;;10191142;28;20059;-69
2022/08/02 15:42:02;;;;;;;5.60;4.85;;;;;;;;;;10174078;28;20124;-70
2022/08/02 15:46:59;;;;;;;5.43;4.57;;;;;;;;;;10169808;28;20073;-67
2022/08/02 15:51:55;;;;;;;5.57;4.60;;;;;;;;;;10168760;28;20042;-67
2022/08/02 15:56:52;;;;;;;5.70;4.70;;;;;;;;;;10167755;28;20746;-67
2022/08/02 16:01:49;;;;;;;8.13;4.57;;;;;;;;;;10171641;28;20046;-67
2022/08/02 16:06:48;;;;;;;6.85;4.32;;;;;;;;;;10156228;28;20750;-67
2022/08/02 16:11:45;;;;;;;4.97;4.20;;;;;;;;;;10180222;28;21329;-67
2022/08/02 16:16:42;;;;;;;5.78;4.75;;;;;;;;;;10169523;28;20049;-67
2022/08/02 16:21:39;;;;;;;5.30;4.20;;;;;;;;;;10167459;28;20136;-67
2022/08/02 16:26:35;;;;;;;5.30;3.85;;;;;;;;;;10174358;28;20495;-67
2022/08/02 16:31:31;;;;;;;5.30;4.20;;;;;;;;;;10179194;28;20042;-67
2022/08/02 16:36:29;;;;;;;5.90;4.15;;;;;;;;;;10165896;28;21393;-67
2022/08/02 16:41:25;;;;;;;4.88;4.20;;;;;;;;;;10163087;28;20066;-67
2022/08/02 16:46:41;;;;;;;5.57;3.60;;;;;;;;;;10185067;28;20560;-67
2022/08/02 16:51:40;;;;;;;4.72;3.88;;;;;;;;;;10160152;28;20663;-67
2022/08/02 16:56:36;;;;;;;5.53;3.75;;;;;;;;;;10162026;28;20046;-69
2022/08/02 17:01:33;;;;;;;5.07;3.80;;;;;;;;;;10168279;28;20141;-67
2022/08/02 17:06:49;;;;;;;4.72;3.20;;;;;;;;;;10165937;28;20038;-67
2022/08/02 17:11:47;;;;;;;4.47;2.97;;;;;;;;;;10155456;28;20129;-68
2022/08/02 17:16:43;;;;;;;5.75;3.85;;;;;;;;;;10160620;28;20069;-67
2022/08/02 17:22:44;;;;;;;4.90;3.70;;;;;;;;;;10266821;27;20141;-67
2022/08/02 17:27:41;;;;;;;4.43;2.90;;;;;;;;;;10235239;28;20139;-71
2022/08/02 17:32:38;;;;;;;5.55;3.70;;;;;;;;;;10239470;28;20049;-71
2022/08/02 17:37:35;;;;;;;6.53;3.70;;;;;;;;;;10233366;28;20135;-71
2022/08/02 17:42:37;;;;;;;5.25;3.50;;;;;;;;;;10229910;28;20049;-71
2022/08/02 17:47:33;;;;;;;5.10;3.08;;;;;;;;;;10219164;28;20099;-71
2022/08/02 17:52:38;;;;;;;3.58;2.35;;;;;;;;;;10224043;28;20052;-71
2022/08/02 17:57:48;;;;;;;5.40;2.63;;;;;;;;;;10230528;28;20581;-71
2022/08/02 18:02:54;;;;;;;4.80;2.90;;;;;;;;;;10260027;28;20132;-69
2022/08/02 18:07:51;;;;;;;5.13;2.78;;;;;;;;;;10228058;28;20551;-68
2022/08/02 18:12:56;;;;;;;6.85;2.20;;;;;;;;;;10231284;28;20525;-68
2022/08/02 18:17:52;;;;;;;4.38;2.72;;;;;;;;;;10233264;28;20095;-68
2022/08/02 18:22:52;;;;;;;5.05;2.45;;;;;;;;;;10230904;28;20045;-68
2022/08/02 18:27:54;;;;;;;5.18;2.40;;;;;;;;;;10226958;28;20125;-69
2022/08/02 18:32:50;;;;;;;8.02;3.28;;;;;;;;;;10208825;28;20108;-68
2022/08/02 18:38:07;;;;;;;4.70;2.78;;;;;;;;;;10208360;28;20069;-68
2022/08/02 18:43:07;;;;;;;4.63;2.38;;;;;;;;;;10215177;28;20061;-68
2022/08/02 18:48:03;;;;;;;4.07;2.50;;;;;;;;;;10204505;28;20045;-68
2022/08/02 18:53:02;;;;;;;3.38;1.90;;;;;;;;;;10206405;28;20055;-68
2022/08/02 18:57:59;;;;;;;5.57;2.40;;;;;;;;;;10208037;28;20097;-68
2022/08/02 19:03:15;;;;;;;4.57;2.20;;;;;;;;;;10212745;28;20041;-68
2022/08/02 19:08:12;;;;;;;5.80;3.10;;;;;;;;;;10197234;28;20643;-68
2022/08/02 19:13:09;;;;;;;6.60;2.35;;;;;;;;;;10203046;28;20413;-68
2022/08/02 19:18:13;;;;;;;4.55;2.13;;;;;;;;;;10205173;28;20048;-68
2022/08/02 19:23:09;;;;;;;5.50;2.45;;;;;;;;;;10210915;28;20585;-68
2022/08/02 19:28:09;;;;;;;7.15;2.33;;;;;;;;;;10204293;28;20120;-68
2022/08/02 19:33:06;;;;;;;6.63;2.20;;;;;;;;;;10210392;28;20107;-68
2022/08/02 19:38:06;;;;;;;3.78;2.08;;;;;;;;;;10198486;28;20052;-68
2022/08/02 19:43:02;;;;;;;3.90;2.10;;;;;;;;;;10203350;28;20049;-68
2022/08/02 19:48:19;;;;;;;3.85;1.92;;;;;;;;;;10204386;28;20053;-68
2022/08/02 19:53:20;;;;;;;5.33;2.13;;;;;;;;;;10196226;28;20121;-71
2022/08/02 19:58:18;;;;;;;4.53;2.40;;;;;;;;;;10195947;28;20068;-71
2022/08/02 20:03:18;;;;;;;5.93;2.50;;;;;;;;;;10196807;28;20743;-66
2022/08/02 20:08:35;;;;;;;4.20;2.40;;;;;;;;;;10211842;28;20052;-63
2022/08/02 20:13:33;;;;;;;6.03;2.42;;;;;;;;;;10217869;28;20100;-68
2022/08/02 20:18:42;;;;;;;5.85;1.92;;;;;;;;;;10204448;28;20072;-68
2022/08/02 20:23:38;;;;;;;4.45;2.40;;;;;;;;;;10201699;28;20125;-69
2022/08/02 20:28:35;;;;;;;4.97;2.63;;;;;;;;;;10198132;28;20080;-67
2022/08/02 20:33:31;;;;;;;8.18;2.90;;;;;;;;;;10197401;28;20042;-66
2022/08/02 20:38:28;;;;;;;7.13;3.03;;;;;;;;;;10219452;28;20093;-66
2022/08/02 20:43:26;;;;;;;5.57;3.00;;;;;;;;;;10221129;28;20042;-66
2022/08/02 20:48:28;;;;;;;5.60;2.90;;;;;;;;;;10213422;28;20056;-66
2022/08/02 20:53:25;;;;;;;6.45;3.05;;;;;;;;;;10213936;28;20076;-68
2022/08/02 20:58:25;;;;;;;5.40;3.13;;;;;;;;;;10211463;28;20065;-66
2022/08/02 21:03:23;;;;;;;7.97;3.58;;;;;;;;;;10216543;28;20049;-67
2022/08/02 21:08:27;;;;;;;8.45;4.43;;;;;;;;;;10217437;28;20041;-67
2022/08/02 21:13:24;;;;;;;5.35;3.08;;;;;;;;;;10210262;28;20041;-67
2022/08/02 21:18:22;;;;;;;11.00;4.03;;;;;;;;;;10204206;28;20045;-67
2022/08/02 21:23:36;;;;;;;8.07;3.30;;;;;;;;;;10208096;28;20540;-67
2022/08/02 21:28:33;;;;;;;5.68;2.80;;;;;;;;;;10221272;28;20049;-67
2022/08/02 21:33:40;;;;;;;6.00;3.03;;;;;;;;;;10185170;28;20549;-67
2022/08/02 21:38:56;;;;;;;7.78;3.35;;;;;;;;;;10207285;28;20584;-67
2022/08/02 21:43:52;;;;;;;9.18;4.20;;;;;;;;;;10207966;28;20042;-67
2022/08/02 21:48:49;;;;;;;8.88;5.38;;;;;;;;;;10212271;28;20081;-67
2022/08/02 21:53:45;;;;;;;7.80;4.10;;;;;;;;;;10222349;28;20079;-67
2022/08/02 21:59:01;;;;;;;7.05;3.90;;;;;;;;;;10204058;28;20145;-67
2022/08/02 22:04:18;;;;;;;5.93;3.97;;;;;;;;;;10214283;28;20044;-67
2022/08/02 22:09:16;;;;;;;5.55;2.88;;;;;;;;;;10219999;28;20056;-65
2022/08/02 22:14:32;;;;;;;6.07;3.25;;;;;;;;;;10231179;28;20519;-67
2022/08/02 22:19:28;;;;;;;5.80;3.15;;;;;;;;;;10219506;28;20793;-66
2022/08/02 22:24:25;;;;;;;4.78;2.78;;;;;;;;;;10225421;28;20121;-66
2022/08/02 22:29:25;;;;;;;6.35;2.80;;;;;;;;;;10221333;28;20076;-68
2022/08/02 22:34:21;;;;;;;4.55;3.03;;;;;;;;;;10219993;28;20053;-68
2022/08/02 22:39:38;;;;;;;5.18;3.17;;;;;;;;;;10216677;28;20153;-68
2022/08/02 22:44:54;;;;;;;5.50;3.03;;;;;;;;;;10226659;28;20037;-68
2022/08/02 22:49:50;;;;;;;5.72;2.72;;;;;;;;;;10211234;28;20042;-67
2022/08/02 22:54:54;;;;;;;4.85;2.88;;;;;;;;;;10217388;28;20045;-67
2022/08/02 22:59:50;;;;;;;6.90;3.15;;;;;;;;;;10223446;28;20064;-67
2022/08/02 23:04:46;;;;;;;5.80;2.85;;;;;;;;;;10220320;28;20068;-67
2022/08/02 23:09:43;;;;;;;6.32;3.15;;;;;;;;;;10220919;28;20520;-66
2022/08/02 23:14:39;;;;;;;8.55;3.65;;;;;;;;;;10222918;28;20727;-66
2022/08/02 23:19:51;;;;;;;6.68;2.88;;;;;;;;;;10222864;28;20088;-67
2022/08/02 23:24:47;;;;;;;5.00;2.95;;;;;;;;;;10222315;28;20042;-65
2022/08/02 23:29:44;;;;;;;11.20;3.28;;;;;;;;;;10221262;28;20493;-65
2022/08/02 23:34:41;;;;;;;5.28;3.17;;;;;;;;;;10219179;28;20072;-66
2022/08/02 23:39:37;;;;;;;5.35;3.10;;;;;;;;;;10212059;28;20092;-66
2022/08/02 23:44:34;;;;;;;7.10;3.13;;;;;;;;;;10226073;28;20512;-67
2022/08/02 23:49:30;;;;;;;5.53;2.92;;;;;;;;;;10225157;28;20188;-66
2022/08/02 23:54:27;;;;;;;5.93;2.75;;;;;;;;;;10222491;28;20064;-67
2022/08/02 23:59:23;;;;;;;4.47;2.75;;;;;;;;;;10210724;28;20045;-67
